createdAt,value
2023-04-07T00:00:35.981Z,0
2023-04-07T00:01:36.871Z,0
2023-04-07T00:02:38.534Z,0
2023-04-07T00:03:39.591Z,0
2023-04-07T00:04:40.522Z,0
2023-04-07T00:05:39.855Z,0
2023-04-07T00:06:40.363Z,0
2023-04-07T00:07:56.725Z,0
2023-04-07T00:08:41.362Z,0
2023-04-07T00:09:42.680Z,0
2023-04-07T00:10:43.180Z,0
2023-04-07T00:11:43.916Z,0
2023-04-07T00:12:44.436Z,0
2023-04-07T00:13:46.779Z,0
2023-04-07T00:14:45.435Z,0
2023-04-07T00:15:45.794Z,0
2023-04-07T00:16:46.694Z,0
2023-04-07T00:17:47.510Z,0
2023-04-07T00:18:48.203Z,0
2023-04-07T00:19:48.685Z,0
2023-04-07T00:20:49.167Z,0
2023-04-07T00:21:50.260Z,0
2023-04-07T00:22:51.027Z,0
2023-04-07T00:23:51.315Z,0
2023-04-07T00:24:51.674Z,0
2023-04-07T00:25:52.164Z,0
2023-04-07T00:26:52.457Z,0
2023-04-07T00:27:53.159Z,0
2023-04-07T00:28:53.674Z,0
2023-04-07T00:29:53.960Z,0
2023-04-07T00:30:54.311Z,0
2023-04-07T00:31:55.271Z,0
2023-04-07T00:32:56.988Z,0
2023-04-07T00:33:56.670Z,0
2023-04-07T00:34:57.446Z,0
2023-04-07T00:35:58.117Z,0
2023-04-07T00:36:59.021Z,0
2023-04-07T00:37:59.803Z,0
2023-04-07T00:39:00.116Z,0
2023-04-07T00:40:00.765Z,0
2023-04-07T00:41:01.501Z,0
2023-04-07T00:42:02.026Z,0
2023-04-07T00:43:03.038Z,0
2023-04-07T00:44:04.793Z,0
2023-04-07T00:45:04.476Z,0
2023-04-07T00:46:04.607Z,0
2023-04-07T00:47:05.398Z,0
2023-04-07T00:48:06.901Z,0
2023-04-07T00:49:06.914Z,0
2023-04-07T00:50:07.517Z,0
2023-04-07T00:51:07.024Z,0
2023-04-07T00:52:07.324Z,0
2023-04-07T00:53:08.486Z,0
2023-04-07T00:54:08.087Z,0
2023-04-07T00:55:08.398Z,0
2023-04-07T00:56:10.070Z,0
2023-04-07T00:57:10.981Z,0
2023-04-07T00:58:11.671Z,0
2023-04-07T00:59:12.176Z,0
2023-04-07T01:00:12.932Z,0
2023-04-07T01:01:13.221Z,0
2023-04-07T01:02:14.900Z,0
2023-04-07T01:03:16.551Z,0
2023-04-07T01:04:16.670Z,0
2023-04-07T01:05:16.545Z,0
2023-04-07T01:06:17.562Z,0
2023-04-07T01:07:17.069Z,0
2023-04-07T01:08:18.000Z,0
2023-04-07T01:09:18.883Z,0
2023-04-07T01:10:19.553Z,0
2023-04-07T01:11:20.020Z,0
2023-04-07T01:12:20.951Z,0
2023-04-07T01:13:21.456Z,0
2023-04-07T01:14:21.975Z,0
2023-04-07T01:15:22.672Z,0
2023-04-07T01:16:23.440Z,0
2023-04-07T01:17:24.637Z,0
2023-04-07T01:18:25.641Z,0
2023-04-07T01:19:25.342Z,0
2023-04-07T01:20:26.502Z,0
2023-04-07T01:21:25.994Z,0
2023-04-07T01:22:26.080Z,0
2023-04-07T01:23:27.123Z,0
2023-04-07T01:24:27.436Z,0
2023-04-07T01:25:27.787Z,0
2023-04-07T01:26:28.997Z,0
2023-04-07T01:27:29.572Z,0
2023-04-07T01:28:30.498Z,0
2023-04-07T01:29:31.229Z,0
2023-04-07T01:30:31.539Z,0
2023-04-07T01:31:32.409Z,0
2023-04-07T01:32:33.193Z,0
2023-04-07T01:33:34.572Z,0
2023-04-07T01:34:33.930Z,0
2023-04-07T01:35:35.047Z,0
2023-04-07T01:36:35.743Z,0
2023-04-07T01:37:36.685Z,0
2023-04-07T01:38:36.617Z,0
2023-04-07T01:39:37.344Z,0
2023-04-07T01:40:37.825Z,0
2023-04-07T01:41:38.335Z,0
2023-04-07T01:42:38.826Z,0
2023-04-07T01:43:39.342Z,0
2023-04-07T01:44:40.066Z,0
2023-04-07T01:45:40.776Z,0
2023-04-07T01:46:41.034Z,0
2023-04-07T01:47:42.966Z,0
2023-04-07T01:48:42.885Z,0
2023-04-07T01:49:43.613Z,0
2023-04-07T01:50:44.128Z,0
2023-04-07T01:51:44.808Z,0
2023-04-07T01:52:45.504Z,0
2023-04-07T01:53:46.245Z,0
2023-04-07T01:54:47.125Z,0
2023-04-07T01:55:47.624Z,0
2023-04-07T01:56:48.247Z,0
2023-04-07T01:57:48.973Z,0
2023-04-07T01:58:49.255Z,0
2023-04-07T01:59:50.143Z,0
2023-04-07T02:00:50.881Z,0
2023-04-07T02:01:52.337Z,0
2023-04-07T02:02:53.424Z,0
2023-04-07T02:03:54.219Z,0
2023-04-07T02:04:53.666Z,0
2023-04-07T02:05:54.567Z,0
2023-04-07T02:06:55.024Z,0
2023-04-07T02:07:55.902Z,0
2023-04-07T02:08:56.753Z,0
2023-04-07T02:09:57.273Z,0
2023-04-07T02:10:57.778Z,0
2023-04-07T02:11:58.061Z,0
2023-04-07T02:12:58.984Z,0
2023-04-07T02:14:00.477Z,0
2023-04-07T02:14:59.966Z,0
2023-04-07T02:16:00.473Z,0
2023-04-07T02:17:03.315Z,0
2023-04-07T02:18:02.301Z,0
2023-04-07T02:19:02.341Z,0
2023-04-07T02:20:03.039Z,0
2023-04-07T02:21:03.943Z,0
2023-04-07T02:22:04.427Z,0
2023-04-07T02:23:05.119Z,0
2023-04-07T02:24:07.011Z,0
2023-04-07T02:25:06.299Z,0
2023-04-07T02:26:07.790Z,0
2023-04-07T02:27:08.283Z,0
2023-04-07T02:28:08.823Z,0
2023-04-07T02:29:09.519Z,0
2023-04-07T02:30:09.995Z,0
2023-04-07T02:31:10.280Z,0
2023-04-07T02:32:11.248Z,0
2023-04-07T02:33:12.011Z,0
2023-04-07T02:34:13.160Z,0
2023-04-07T02:35:12.887Z,0
2023-04-07T02:36:13.576Z,0
2023-04-07T02:37:13.919Z,0
2023-04-07T02:38:14.643Z,0
2023-04-07T02:39:15.048Z,0
2023-04-07T02:40:15.745Z,0
2023-04-07T02:41:16.465Z,0
2023-04-07T02:42:16.556Z,0
2023-04-07T02:43:18.051Z,0
2023-04-07T02:44:18.781Z,0
2023-04-07T02:45:19.747Z,0
2023-04-07T02:46:21.926Z,0
2023-04-07T02:48:21.695Z,0
2023-04-07T02:49:22.700Z,0
2023-04-07T02:50:23.844Z,0
2023-04-07T02:51:24.569Z,0
2023-04-07T02:52:25.075Z,0
2023-04-07T02:53:25.787Z,0
2023-04-07T02:54:26.562Z,0
2023-04-07T02:55:26.896Z,0
2023-04-07T02:56:27.639Z,0
2023-04-07T02:57:28.414Z,0
2023-04-07T02:58:28.711Z,0
2023-04-07T02:59:29.232Z,0
2023-04-07T03:00:29.588Z,0
2023-04-07T03:01:30.494Z,0
2023-04-07T03:02:31.048Z,0
2023-04-07T03:03:31.654Z,0
2023-04-07T03:04:32.358Z,0
2023-04-07T03:05:32.308Z,0
2023-04-07T03:06:32.810Z,0
2023-04-07T03:07:33.842Z,0
2023-04-07T03:08:34.545Z,0
2023-04-07T03:09:35.054Z,0
2023-04-07T03:10:35.754Z,0
2023-04-07T03:11:36.440Z,0
2023-04-07T03:12:37.561Z,0
2023-04-07T03:13:38.115Z,0
2023-04-07T03:14:38.657Z,0
2023-04-07T03:15:39.196Z,0
2023-04-07T03:16:40.033Z,0
2023-04-07T03:17:41.092Z,0
2023-04-07T03:18:41.884Z,0
2023-04-07T03:19:42.449Z,0
2023-04-07T03:20:42.933Z,0
2023-04-07T03:21:43.242Z,0
2023-04-07T03:22:43.724Z,0
2023-04-07T03:23:44.444Z,0
2023-04-07T03:24:45.192Z,0
2023-04-07T03:25:47.437Z,0
2023-04-07T03:26:46.115Z,0
2023-04-07T03:27:46.331Z,0
2023-04-07T03:28:47.041Z,0
2023-04-07T03:29:47.980Z,0
2023-04-07T03:30:48.224Z,0
2023-04-07T03:31:47.737Z,0
2023-04-07T03:32:48.462Z,0
2023-04-07T03:33:49.214Z,0
2023-04-07T03:34:50.199Z,0
2023-04-07T03:35:50.990Z,0
2023-04-07T03:36:51.531Z,0
2023-04-07T03:37:51.592Z,0
2023-04-07T03:38:52.074Z,0
2023-04-07T03:39:53.272Z,0
2023-04-07T03:40:53.992Z,0
2023-04-07T03:41:54.889Z,0
2023-04-07T03:42:55.373Z,0
2023-04-07T03:43:56.716Z,0
2023-04-07T03:44:56.190Z,0
2023-04-07T03:45:56.962Z,0
2023-04-07T03:46:57.760Z,0
2023-04-07T03:47:58.256Z,0
2023-04-07T03:48:58.640Z,0
2023-04-07T03:49:59.218Z,0
2023-04-07T03:50:59.887Z,0
2023-04-07T03:52:00.368Z,0
2023-04-07T03:53:01.065Z,0
2023-04-07T03:54:01.664Z,0
2023-04-07T03:55:02.792Z,0
2023-04-07T03:56:02.477Z,0
2023-04-07T03:57:02.967Z,0
2023-04-07T03:58:03.582Z,0
2023-04-07T03:59:04.304Z,0
2023-04-07T04:00:04.814Z,0
2023-04-07T04:01:05.705Z,0
2023-04-07T04:02:06.542Z,0
2023-04-07T04:03:07.786Z,0
2023-04-07T04:04:09.642Z,0
2023-04-07T04:05:09.047Z,0
2023-04-07T04:06:08.526Z,0
2023-04-07T04:07:09.004Z,0
2023-04-07T04:08:10.025Z,0
2023-04-07T04:09:10.727Z,0
2023-04-07T04:10:11.439Z,0
2023-04-07T04:11:12.115Z,0
2023-04-07T04:12:12.624Z,0
2023-04-07T04:13:13.306Z,0
2023-04-07T04:14:14.086Z,0
2023-04-07T04:15:14.395Z,0
2023-04-07T04:16:15.650Z,0
2023-04-07T04:17:16.684Z,0
2023-04-07T04:18:16.483Z,0
2023-04-07T04:19:17.197Z,0
2023-04-07T04:20:17.859Z,0
2023-04-07T04:21:18.529Z,0
2023-04-07T04:22:19.030Z,0
2023-04-07T04:23:19.524Z,0
2023-04-07T04:24:20.615Z,0
2023-04-07T04:25:20.400Z,0
2023-04-07T04:26:20.465Z,0
2023-04-07T04:27:21.968Z,0
2023-04-07T04:28:22.120Z,0
2023-04-07T04:29:22.843Z,0
2023-04-07T04:30:23.556Z,0
2023-04-07T04:31:24.466Z,0
2023-04-07T04:32:25.204Z,0
2023-04-07T04:33:25.528Z,0
2023-04-07T04:34:26.273Z,0
2023-04-07T04:35:27.076Z,0
2023-04-07T04:36:27.786Z,0
2023-04-07T04:37:28.295Z,0
2023-04-07T04:38:28.266Z,0
2023-04-07T04:39:29.878Z,0
2023-04-07T04:40:30.801Z,0
2023-04-07T04:41:31.297Z,0
2023-04-07T04:42:32.236Z,0
2023-04-07T04:43:32.944Z,0
2023-04-07T04:44:33.078Z,0
2023-04-07T04:45:33.899Z,0
2023-04-07T04:46:34.517Z,0
2023-04-07T04:47:35.759Z,0
2023-04-07T04:48:36.028Z,0
2023-04-07T04:49:36.933Z,0
2023-04-07T04:50:37.715Z,0
2023-04-07T04:51:38.654Z,0
2023-04-07T04:52:39.797Z,0
2023-04-07T04:53:39.642Z,0
2023-04-07T04:54:40.367Z,0
2023-04-07T04:55:40.859Z,0
2023-04-07T04:56:41.575Z,0
2023-04-07T04:57:41.866Z,0
2023-04-07T04:58:42.488Z,0
2023-04-07T04:59:42.970Z,0
2023-04-07T05:00:43.603Z,0
2023-04-07T05:01:44.894Z,0
2023-04-07T05:02:45.213Z,0
2023-04-07T05:03:45.382Z,0
2023-04-07T05:04:46.158Z,0
2023-04-07T05:05:46.187Z,0
2023-04-07T05:06:45.712Z,0
2023-04-07T05:07:45.811Z,0
2023-04-07T05:08:47.249Z,0
2023-04-07T05:09:48.368Z,0
2023-04-07T05:10:49.708Z,0
2023-04-07T05:11:49.249Z,0
2023-04-07T05:12:49.924Z,0
2023-04-07T05:13:50.569Z,0
2023-04-07T05:14:51.563Z,0
2023-04-07T05:15:52.302Z,0
2023-04-07T05:16:53.211Z,0
2023-04-07T05:17:54.069Z,0
2023-04-07T05:18:54.266Z,0
2023-04-07T05:19:55.163Z,0
2023-04-07T05:20:56.178Z,0
2023-04-07T05:21:55.864Z,0
2023-04-07T05:22:56.387Z,0
2023-04-07T05:23:57.300Z,0
2023-04-07T05:24:57.204Z,0
2023-04-07T05:25:57.953Z,0
2023-04-07T05:26:58.847Z,0
2023-04-07T05:27:59.140Z,0
2023-04-07T05:29:00.417Z,0
2023-04-07T05:30:00.700Z,0
2023-04-07T05:31:01.381Z,0
2023-04-07T05:32:02.237Z,0
2023-04-07T05:33:03.312Z,0
2023-04-07T05:34:04.346Z,0
2023-04-07T05:35:05.072Z,0
2023-04-07T05:36:06.398Z,0
2023-04-07T05:37:06.350Z,0
2023-04-07T05:38:06.708Z,5.63
2023-04-07T05:39:07.310Z,5.63
2023-04-07T05:40:07.984Z,5.63
2023-04-07T05:41:09.144Z,5.63
2023-04-07T05:42:08.974Z,5.63
2023-04-07T05:43:09.459Z,5.63
2023-04-07T05:44:10.152Z,5.63
2023-04-07T05:45:10.847Z,5.63
2023-04-07T05:46:11.923Z,5.63
2023-04-07T05:47:12.165Z,5.63
2023-04-07T05:48:12.968Z,5.63
2023-04-07T05:49:30.923Z,11.25
2023-04-07T05:51:14.616Z,11.25
2023-04-07T05:52:15.317Z,11.25
2023-04-07T05:53:15.599Z,11.25
2023-04-07T05:54:16.327Z,11.25
2023-04-07T05:55:17.034Z,16.88
2023-04-07T05:56:18.173Z,16.88
2023-04-07T05:57:18.728Z,16.88
2023-04-07T05:58:19.241Z,16.88
2023-04-07T05:59:19.554Z,22.5
2023-04-07T06:00:19.849Z,22.5
2023-04-07T06:01:20.575Z,28.13
2023-04-07T06:02:22.465Z,28.13
2023-04-07T06:03:22.502Z,28.13
2023-04-07T06:04:22.342Z,33.75
2023-04-07T06:05:23.739Z,33.75
2023-04-07T06:06:23.729Z,33.75
2023-04-07T06:07:24.239Z,33.75
2023-04-07T06:08:25.150Z,33.75
2023-04-07T06:09:25.616Z,33.75
2023-04-07T06:10:26.100Z,33.75
2023-04-07T06:11:26.822Z,33.75
2023-04-07T06:12:27.539Z,33.75
2023-04-07T06:13:28.256Z,33.75
2023-04-07T06:14:28.613Z,33.75
2023-04-07T06:15:29.505Z,33.75
2023-04-07T06:16:31.006Z,39.38
2023-04-07T06:17:30.701Z,39.38
2023-04-07T06:18:31.175Z,39.38
2023-04-07T06:19:31.987Z,39.38
2023-04-07T06:20:31.722Z,39.38
2023-04-07T06:21:32.507Z,45
2023-04-07T06:22:33.605Z,45
2023-04-07T06:23:33.917Z,50.63
2023-04-07T06:24:34.408Z,50.63
2023-04-07T06:25:35.401Z,56.25
2023-04-07T06:26:36.186Z,56.25
2023-04-07T06:27:36.475Z,61.88
2023-04-07T06:28:36.975Z,61.88
2023-04-07T06:29:37.270Z,61.88
2023-04-07T06:30:38.232Z,61.88
2023-04-07T06:31:37.752Z,67.5
2023-04-07T06:32:38.890Z,67.5
2023-04-07T06:33:39.626Z,67.5
2023-04-07T06:34:40.516Z,67.5
2023-04-07T06:35:41.255Z,61.88
2023-04-07T06:36:42.351Z,50.63
2023-04-07T06:37:41.833Z,39.38
2023-04-07T06:38:42.732Z,39.38
2023-04-07T06:39:43.117Z,39.38
2023-04-07T06:40:43.815Z,39.38
2023-04-07T06:41:44.802Z,39.38
2023-04-07T06:42:45.302Z,39.38
2023-04-07T06:43:45.633Z,39.38
2023-04-07T06:44:46.299Z,45
2023-04-07T06:45:47.094Z,45
2023-04-07T06:46:47.863Z,45
2023-04-07T06:47:48.908Z,45
2023-04-07T06:48:49.610Z,50.63
2023-04-07T06:49:52.965Z,56.25
2023-04-07T06:50:50.437Z,56.25
2023-04-07T06:51:51.621Z,56.25
2023-04-07T06:52:51.313Z,56.25
2023-04-07T06:53:52.360Z,61.88
2023-04-07T06:54:52.050Z,61.88
2023-04-07T06:55:52.572Z,61.88
2023-04-07T06:56:54.633Z,56.25
2023-04-07T06:57:53.378Z,56.25
2023-04-07T06:58:53.873Z,56.25
2023-04-07T06:59:54.493Z,56.25
2023-04-07T07:00:55.333Z,56.25
2023-04-07T07:01:56.629Z,56.25
2023-04-07T07:02:56.663Z,56.25
2023-04-07T07:03:58.960Z,50.63
2023-04-07T07:04:57.490Z,50.63
2023-04-07T07:06:01.080Z,50.63
2023-04-07T07:06:59.244Z,50.63
2023-04-07T07:07:59.130Z,50.63
2023-04-07T07:08:59.815Z,50.63
2023-04-07T07:09:59.793Z,50.63
2023-04-07T07:11:00.107Z,50.63
2023-04-07T07:12:01.923Z,56.25
2023-04-07T07:13:00.939Z,61.88
2023-04-07T07:14:01.729Z,61.88
2023-04-07T07:15:02.438Z,67.5
2023-04-07T07:16:04.400Z,67.5
2023-04-07T07:17:04.402Z,73.13
2023-04-07T07:18:05.389Z,78.75
2023-04-07T07:19:05.692Z,84.38
2023-04-07T07:20:05.283Z,90
2023-04-07T07:21:06.440Z,95.63
2023-04-07T07:22:06.426Z,101.25
2023-04-07T07:23:07.601Z,106.88
2023-04-07T07:24:07.339Z,112.5
2023-04-07T07:25:07.617Z,118.13
2023-04-07T07:26:08.100Z,129.38
2023-04-07T07:27:09.292Z,140.63
2023-04-07T07:28:09.779Z,146.25
2023-04-07T07:29:10.694Z,151.88
2023-04-07T07:30:11.170Z,157.5
2023-04-07T07:31:12.057Z,157.5
2023-04-07T07:32:12.818Z,163.13
2023-04-07T07:33:13.730Z,168.75
2023-04-07T07:34:14.272Z,174.38
2023-04-07T07:35:14.369Z,180
2023-04-07T07:36:15.675Z,185.63
2023-04-07T07:37:15.682Z,191.25
2023-04-07T07:38:15.191Z,196.88
2023-04-07T07:39:15.875Z,202.5
2023-04-07T07:40:16.337Z,208.13
2023-04-07T07:41:16.966Z,213.75
2023-04-07T07:42:17.472Z,219.38
2023-04-07T07:43:18.487Z,219.38
2023-04-07T07:44:18.773Z,213.75
2023-04-07T07:45:19.628Z,202.5
2023-04-07T07:46:20.699Z,202.5
2023-04-07T07:47:21.490Z,196.88
2023-04-07T07:48:22.006Z,196.88
2023-04-07T07:49:22.854Z,196.88
2023-04-07T07:50:23.097Z,196.88
2023-04-07T07:51:23.885Z,196.88
2023-04-07T07:52:26.983Z,202.5
2023-04-07T07:53:24.457Z,208.13
2023-04-07T07:54:24.747Z,213.75
2023-04-07T07:55:25.528Z,219.38
2023-04-07T07:56:26.024Z,225
2023-04-07T07:57:26.548Z,225
2023-04-07T07:58:27.250Z,230.63
2023-04-07T07:59:28.927Z,241.88
2023-04-07T08:00:27.924Z,241.88
2023-04-07T08:01:28.234Z,241.88
2023-04-07T08:02:29.484Z,241.88
2023-04-07T08:03:29.598Z,253.13
2023-04-07T08:04:30.137Z,264.38
2023-04-07T08:05:29.677Z,270
2023-04-07T08:06:30.204Z,275.63
2023-04-07T08:07:31.313Z,275.63
2023-04-07T08:08:31.411Z,258.75
2023-04-07T08:09:31.727Z,253.13
2023-04-07T08:10:33.122Z,253.13
2023-04-07T08:11:33.871Z,247.5
2023-04-07T08:12:34.855Z,247.5
2023-04-07T08:13:35.342Z,241.88
2023-04-07T08:14:36.051Z,247.5
2023-04-07T08:15:36.165Z,247.5
2023-04-07T08:16:36.794Z,253.13
2023-04-07T08:17:38.207Z,258.75
2023-04-07T08:18:37.750Z,264.38
2023-04-07T08:19:38.353Z,264.38
2023-04-07T08:20:38.988Z,270
2023-04-07T08:21:39.577Z,270
2023-04-07T08:22:40.384Z,281.25
2023-04-07T08:23:40.928Z,309.38
2023-04-07T08:24:41.436Z,393.75
2023-04-07T08:25:42.197Z,315
2023-04-07T08:26:42.681Z,303.75
2023-04-07T08:27:43.468Z,315
2023-04-07T08:28:43.954Z,331.88
2023-04-07T08:29:46.178Z,393.75
2023-04-07T08:30:45.082Z,438.75
2023-04-07T08:31:46.253Z,365.63
2023-04-07T08:32:47.385Z,371.25
2023-04-07T08:33:47.349Z,416.25
2023-04-07T08:34:48.547Z,489.38
2023-04-07T08:35:48.898Z,489.38
2023-04-07T08:36:49.681Z,450
2023-04-07T08:37:50.740Z,399.38
2023-04-07T08:38:51.455Z,388.13
2023-04-07T08:39:51.759Z,511.88
2023-04-07T08:40:52.225Z,427.5
2023-04-07T08:41:52.951Z,376.88
2023-04-07T08:42:53.919Z,337.5
2023-04-07T08:43:55.027Z,337.5
2023-04-07T08:44:54.532Z,320.63
2023-04-07T08:45:56.574Z,320.63
2023-04-07T08:46:55.709Z,500.63
2023-04-07T08:47:55.818Z,500.63
2023-04-07T08:48:55.349Z,444.38
2023-04-07T08:49:56.238Z,348.75
2023-04-07T08:50:56.444Z,331.88
2023-04-07T08:51:57.400Z,433.13
2023-04-07T08:52:58.408Z,511.88
2023-04-07T08:54:00.334Z,545.63
2023-04-07T08:55:00.054Z,495
2023-04-07T08:56:01.003Z,399.38
2023-04-07T08:57:00.496Z,343.13
2023-04-07T08:58:02.182Z,382.5
2023-04-07T08:59:01.785Z,371.25
2023-04-07T09:00:02.498Z,399.38
2023-04-07T09:01:03.032Z,405
2023-04-07T09:02:04.190Z,399.38
2023-04-07T09:03:05.149Z,410.63
2023-04-07T09:04:05.958Z,388.13
2023-04-07T09:05:06.072Z,388.13
2023-04-07T09:06:06.620Z,376.88
2023-04-07T09:07:07.590Z,376.88
2023-04-07T09:08:08.808Z,360
2023-04-07T09:09:08.550Z,393.75
2023-04-07T09:10:09.292Z,421.88
2023-04-07T09:11:09.980Z,399.38
2023-04-07T09:12:09.473Z,489.38
2023-04-07T09:13:10.196Z,517.5
2023-04-07T09:14:10.495Z,500.63
2023-04-07T09:15:10.824Z,483.75
2023-04-07T09:16:11.515Z,500.63
2023-04-07T09:17:12.073Z,517.5
2023-04-07T09:18:12.768Z,562.5
2023-04-07T09:19:13.322Z,540
2023-04-07T09:20:14.050Z,483.75
2023-04-07T09:21:15.804Z,511.88
2023-04-07T09:22:15.642Z,568.13
2023-04-07T09:23:16.436Z,601.88
2023-04-07T09:24:17.146Z,579.38
2023-04-07T09:25:17.689Z,573.75
2023-04-07T09:26:18.625Z,579.38
2023-04-07T09:27:22.168Z,596.25
2023-04-07T09:28:19.980Z,579.38
2023-04-07T09:29:20.797Z,371.25
2023-04-07T09:30:21.938Z,545.63
2023-04-07T09:31:22.040Z,607.5
2023-04-07T09:32:23.195Z,320.63
2023-04-07T09:33:22.971Z,360
2023-04-07T09:34:23.691Z,292.5
2023-04-07T09:35:24.426Z,309.38
2023-04-07T09:36:25.260Z,258.75
2023-04-07T09:37:26.217Z,247.5
2023-04-07T09:38:27.054Z,225
2023-04-07T09:39:27.994Z,213.75
2023-04-07T09:40:28.520Z,213.75
2023-04-07T09:41:29.218Z,219.38
2023-04-07T09:42:29.565Z,230.63
2023-04-07T09:43:30.306Z,309.38
2023-04-07T09:44:31.036Z,534.38
2023-04-07T09:45:48.507Z,556.88
2023-04-07T09:47:32.299Z,551.25
2023-04-07T09:48:32.724Z,596.25
2023-04-07T09:49:33.426Z,405
2023-04-07T09:50:33.936Z,495
2023-04-07T09:51:34.423Z,275.63
2023-04-07T09:52:34.793Z,270
2023-04-07T09:53:35.635Z,292.5
2023-04-07T09:54:36.177Z,382.5
2023-04-07T09:55:36.904Z,511.88
2023-04-07T09:56:37.462Z,303.75
2023-04-07T09:57:37.956Z,253.13
2023-04-07T09:58:38.693Z,253.13
2023-04-07T09:59:39.610Z,309.38
2023-04-07T10:00:39.115Z,264.38
2023-04-07T10:01:39.833Z,230.63
2023-04-07T10:02:41.496Z,202.5
2023-04-07T10:03:41.886Z,191.25
2023-04-07T10:04:41.787Z,180
2023-04-07T10:05:42.311Z,168.75
2023-04-07T10:06:42.634Z,157.5
2023-04-07T10:07:43.374Z,151.88
2023-04-07T10:08:44.355Z,151.88
2023-04-07T10:09:45.271Z,151.88
2023-04-07T10:10:45.981Z,157.5
2023-04-07T10:11:46.750Z,157.5
2023-04-07T10:12:47.068Z,157.5
2023-04-07T10:13:48.146Z,157.5
2023-04-07T10:14:50.999Z,157.5
2023-04-07T10:15:48.497Z,163.13
2023-04-07T10:16:49.397Z,168.75
2023-04-07T10:17:49.524Z,174.38
2023-04-07T10:18:49.320Z,180
2023-04-07T10:19:50.420Z,191.25
2023-04-07T10:20:50.936Z,202.5
2023-04-07T10:21:51.434Z,202.5
2023-04-07T10:22:51.745Z,208.13
2023-04-07T10:23:53.049Z,208.13
2023-04-07T10:24:52.961Z,213.75
2023-04-07T10:25:53.688Z,225
2023-04-07T10:26:56.940Z,236.25
2023-04-07T10:27:55.773Z,241.88
2023-04-07T10:28:56.307Z,292.5
2023-04-07T10:29:56.828Z,331.88
2023-04-07T10:30:57.520Z,585
2023-04-07T10:31:58.074Z,877.5
2023-04-07T10:32:59.337Z,776.25
2023-04-07T10:34:00.246Z,264.38
2023-04-07T10:34:59.771Z,213.75
2023-04-07T10:36:00.224Z,196.88
2023-04-07T10:37:00.730Z,185.63
2023-04-07T10:38:01.746Z,180
2023-04-07T10:39:02.714Z,180
2023-04-07T10:40:02.628Z,180
2023-04-07T10:41:03.533Z,180
2023-04-07T10:42:03.928Z,174.38
2023-04-07T10:43:04.661Z,168.75
2023-04-07T10:44:06.332Z,163.13
2023-04-07T10:45:05.865Z,163.13
2023-04-07T10:46:06.540Z,163.13
2023-04-07T10:47:06.835Z,163.13
2023-04-07T10:48:08.222Z,163.13
2023-04-07T10:49:07.943Z,168.75
2023-04-07T10:50:08.646Z,180
2023-04-07T10:51:08.729Z,185.63
2023-04-07T10:52:09.287Z,191.25
2023-04-07T10:53:10.424Z,208.13
2023-04-07T10:54:10.419Z,225
2023-04-07T10:55:11.515Z,241.88
2023-04-07T10:56:11.488Z,241.88
2023-04-07T10:57:12.129Z,247.5
2023-04-07T10:58:13.327Z,264.38
2023-04-07T10:59:14.123Z,286.88
2023-04-07T11:00:15.124Z,315
2023-04-07T11:01:16.152Z,292.5
2023-04-07T11:02:17.540Z,292.5
2023-04-07T11:03:18.272Z,303.75
2023-04-07T11:04:18.747Z,354.38
2023-04-07T11:05:19.021Z,421.88
2023-04-07T11:06:19.779Z,393.75
2023-04-07T11:07:20.278Z,596.25
2023-04-07T11:08:20.817Z,551.25
2023-04-07T11:09:21.430Z,860.63
2023-04-07T11:10:22.153Z,843.75
2023-04-07T11:11:22.707Z,618.75
2023-04-07T11:12:22.728Z,652.5
2023-04-07T11:13:23.423Z,804.38
2023-04-07T11:14:24.599Z,585
2023-04-07T11:15:25.126Z,703.13
2023-04-07T11:16:25.974Z,770.63
2023-04-07T11:17:26.711Z,275.63
2023-04-07T11:18:27.251Z,236.25
2023-04-07T11:19:28.303Z,202.5
2023-04-07T11:20:28.589Z,185.63
2023-04-07T11:21:29.509Z,185.63
2023-04-07T11:22:45.475Z,174.38
2023-04-07T11:24:31.957Z,180
2023-04-07T11:25:31.445Z,202.5
2023-04-07T11:26:31.977Z,213.75
2023-04-07T11:27:32.509Z,213.75
2023-04-07T11:28:33.458Z,230.63
2023-04-07T11:29:34.432Z,230.63
2023-04-07T11:30:34.937Z,258.75
2023-04-07T11:31:36.053Z,286.88
2023-04-07T11:32:36.840Z,292.5
2023-04-07T11:33:36.586Z,438.75
2023-04-07T11:34:37.292Z,309.38
2023-04-07T11:35:38.049Z,320.63
2023-04-07T11:36:38.771Z,416.25
2023-04-07T11:37:39.077Z,410.63
2023-04-07T11:38:40.235Z,770.63
2023-04-07T11:39:40.235Z,320.63
2023-04-07T11:40:41.163Z,247.5
2023-04-07T11:41:41.949Z,236.25
2023-04-07T11:42:42.757Z,219.38
2023-04-07T11:43:43.223Z,208.13
2023-04-07T11:44:44.051Z,191.25
2023-04-07T11:45:44.551Z,185.63
2023-04-07T11:46:45.648Z,180
2023-04-07T11:47:46.379Z,174.38
2023-04-07T11:48:46.740Z,174.38
2023-04-07T11:49:47.436Z,168.75
2023-04-07T11:50:48.294Z,157.5
2023-04-07T11:51:48.807Z,146.25
2023-04-07T11:52:49.442Z,135
2023-04-07T11:53:49.299Z,118.13
2023-04-07T11:54:50.049Z,106.88
2023-04-07T11:55:50.739Z,90
2023-04-07T11:56:51.297Z,90
2023-04-07T11:57:52.164Z,78.75
2023-04-07T11:58:52.948Z,73.13
2023-04-07T11:59:53.477Z,67.5
2023-04-07T12:00:54.171Z,56.25
2023-04-07T12:01:57.580Z,50.63
2023-04-07T12:02:56.155Z,45
2023-04-07T12:03:57.270Z,45
2023-04-07T12:04:56.824Z,45
2023-04-07T12:05:56.724Z,39.38
2023-04-07T12:06:57.627Z,39.38
2023-04-07T12:07:58.219Z,33.75
2023-04-07T12:08:59.347Z,33.75
2023-04-07T12:10:00.197Z,33.75
2023-04-07T12:11:00.898Z,33.75
2023-04-07T12:12:01.379Z,28.13
2023-04-07T12:13:04.866Z,28.13
2023-04-07T12:14:04.199Z,28.13
2023-04-07T12:15:03.917Z,28.13
2023-04-07T12:16:04.537Z,28.13
2023-04-07T12:17:05.447Z,28.13
2023-04-07T12:18:06.791Z,22.5
2023-04-07T12:19:06.122Z,22.5
2023-04-07T12:20:06.849Z,22.5
2023-04-07T12:21:07.248Z,22.5
2023-04-07T12:22:07.824Z,22.5
2023-04-07T12:23:08.611Z,22.5
2023-04-07T12:24:09.158Z,22.5
2023-04-07T12:25:09.755Z,22.5
2023-04-07T12:26:10.684Z,22.5
2023-04-07T12:27:11.414Z,22.5
2023-04-07T12:28:11.733Z,22.5
2023-04-07T12:29:12.478Z,22.5
2023-04-07T12:30:13.465Z,22.5
2023-04-07T12:31:13.031Z,22.5
2023-04-07T12:32:13.784Z,22.5
2023-04-07T12:33:14.082Z,28.13
2023-04-07T12:34:14.167Z,28.13
2023-04-07T12:35:15.491Z,28.13
2023-04-07T12:36:16.446Z,28.13
2023-04-07T12:37:15.921Z,28.13
2023-04-07T12:38:16.610Z,28.13
2023-04-07T12:39:17.436Z,33.75
2023-04-07T12:40:18.060Z,33.75
2023-04-07T12:41:18.531Z,33.75
2023-04-07T12:42:19.424Z,33.75
2023-04-07T12:43:20.326Z,33.75
2023-04-07T12:44:20.852Z,33.75
2023-04-07T12:45:21.475Z,39.38
2023-04-07T12:46:22.182Z,39.38
2023-04-07T12:47:22.983Z,39.38
2023-04-07T12:48:23.812Z,39.38
2023-04-07T12:49:24.305Z,39.38
2023-04-07T12:50:25.219Z,39.38
2023-04-07T12:51:25.915Z,45
2023-04-07T12:52:26.207Z,45
2023-04-07T12:53:26.996Z,50.63
2023-04-07T12:54:26.693Z,50.63
2023-04-07T12:55:27.470Z,56.25
2023-04-07T12:56:27.957Z,56.25
2023-04-07T12:57:28.477Z,56.25
2023-04-07T12:58:28.994Z,56.25
2023-04-07T12:59:29.489Z,61.88
2023-04-07T13:00:30.095Z,61.88
2023-04-07T13:01:31.338Z,61.88
2023-04-07T13:02:32.773Z,61.88
2023-04-07T13:03:34.339Z,67.5
2023-04-07T13:04:33.534Z,67.5
2023-04-07T13:05:33.089Z,67.5
2023-04-07T13:06:33.420Z,67.5
2023-04-07T13:07:34.111Z,67.5
2023-04-07T13:08:34.836Z,73.13
2023-04-07T13:09:35.731Z,73.13
2023-04-07T13:10:36.515Z,73.13
2023-04-07T13:11:37.230Z,73.13
2023-04-07T13:12:37.751Z,73.13
2023-04-07T13:13:39.204Z,73.13
2023-04-07T13:14:46.459Z,78.75
2023-04-07T13:15:40.786Z,78.75
2023-04-07T13:16:42.127Z,78.75
2023-04-07T13:17:42.229Z,78.75
2023-04-07T13:18:41.734Z,84.38
2023-04-07T13:19:42.835Z,84.38
2023-04-07T13:20:43.858Z,84.38
2023-04-07T13:22:05.844Z,84.38
2023-04-07T13:25:47.128Z,90
2023-04-07T13:26:48.050Z,90
2023-04-07T13:27:48.740Z,84.38
2023-04-07T13:28:49.065Z,84.38
2023-04-07T13:29:49.570Z,90
2023-04-07T13:30:50.550Z,90
2023-04-07T13:31:51.230Z,90
2023-04-07T13:32:52.375Z,95.63
2023-04-07T13:33:52.837Z,95.63
2023-04-07T13:34:53.349Z,95.63
2023-04-07T13:35:54.274Z,95.63
2023-04-07T13:36:54.811Z,95.63
2023-04-07T13:37:55.520Z,95.63
2023-04-07T13:38:56.659Z,95.63
2023-04-07T13:39:56.805Z,95.63
2023-04-07T13:40:56.975Z,90
2023-04-07T13:41:56.867Z,90
2023-04-07T13:42:57.587Z,90
2023-04-07T13:43:59.200Z,90
2023-04-07T13:44:58.905Z,90
2023-04-07T13:46:00.682Z,84.38
2023-04-07T13:47:00.699Z,84.38
2023-04-07T13:48:02.379Z,84.38
2023-04-07T13:49:01.132Z,90
2023-04-07T13:50:01.871Z,78.75
2023-04-07T13:51:02.417Z,78.75